createdAt,value
2019-02-15T00:02:28.085Z,10.10
2019-02-15T00:04:56.507Z,10.73
2019-02-15T00:07:24.929Z,10.00
2019-02-15T00:09:53.324Z,10.33
2019-02-15T00:12:21.737Z,11.57
2019-02-15T00:14:50.330Z,10.97
2019-02-15T00:17:20.378Z,12.07
2019-02-15T00:19:50.413Z,11.83
2019-02-15T00:22:18.997Z,11.27
2019-02-15T00:24:47.399Z,11.60
2019-02-15T00:27:15.797Z,10.53
2019-02-15T00:29:44.337Z,12.87
2019-02-15T00:32:12.730Z,9.17
2019-02-15T00:34:41.142Z,14.07
2019-02-15T00:37:09.721Z,11.60
2019-02-15T00:39:38.117Z,11.20
2019-02-15T00:42:06.511Z,9.37
2019-02-15T00:44:35.141Z,12.63
2019-02-15T00:47:23.455Z,10.77
2019-02-15T00:49:53.797Z,10.30
2019-02-15T00:52:26.529Z,10.37
2019-02-15T00:54:56.757Z,10.50
2019-02-15T00:57:36.066Z,14.00
2019-02-15T01:00:10.310Z,11.40
2019-02-15T01:02:46.207Z,9.73
2019-02-15T01:05:16.312Z,10.20
2019-02-15T01:07:49.020Z,10.97
2019-02-15T01:10:24.929Z,12.43
2019-02-15T01:12:57.441Z,11.87
2019-02-15T01:15:25.855Z,10.93
2019-02-15T01:17:54.301Z,13.33
2019-02-15T01:20:22.697Z,12.17
2019-02-15T01:22:51.097Z,10.43
2019-02-15T01:25:19.592Z,12.87
2019-02-15T01:27:49.630Z,10.57
2019-02-15T01:30:36.150Z,11.87
2019-02-15T01:33:06.189Z,10.63
2019-02-15T01:35:38.905Z,9.40
2019-02-15T01:38:14.464Z,11.00
2019-02-15T01:40:53.246Z,10.97
2019-02-15T01:43:29.076Z,12.63
2019-02-15T01:45:59.126Z,11.10
2019-02-15T01:48:27.520Z,10.63
2019-02-15T01:50:56.149Z,13.13
2019-02-15T01:53:24.555Z,10.97
2019-02-15T01:55:52.942Z,10.50
2019-02-15T01:58:21.692Z,11.80
2019-02-15T02:00:50.154Z,9.57
2019-02-15T02:03:18.552Z,10.67
2019-02-15T02:05:47.182Z,13.47
2019-02-15T02:08:17.347Z,10.90
2019-02-15T02:10:45.886Z,12.00
2019-02-15T02:13:14.348Z,13.63
2019-02-15T02:15:42.754Z,10.33
2019-02-15T02:18:11.154Z,10.07
2019-02-15T02:20:39.576Z,11.60
2019-02-15T02:23:08.021Z,10.97
2019-02-15T02:25:36.584Z,9.90
2019-02-15T02:28:05.201Z,15.53
2019-02-15T02:30:33.607Z,11.23
2019-02-15T02:33:02.077Z,10.07
2019-02-15T02:35:30.668Z,12.27
2019-02-15T02:37:59.067Z,12.73
2019-02-15T02:40:27.473Z,10.70
2019-02-15T02:42:55.896Z,13.77
2019-02-15T02:45:24.345Z,11.10
2019-02-15T02:47:52.778Z,10.27
2019-02-15T02:50:21.315Z,9.93
2019-02-15T02:52:49.782Z,11.07
2019-02-15T02:55:18.178Z,12.70
2019-02-15T02:57:46.772Z,16.37
2019-02-15T03:00:15.238Z,12.40
2019-02-15T03:02:43.738Z,11.57
2019-02-15T03:05:12.201Z,13.87
2019-02-15T03:07:40.596Z,12.27
2019-02-15T03:10:09.132Z,13.87
2019-02-15T03:12:37.588Z,13.97
2019-02-15T03:15:07.194Z,14.73
2019-02-15T03:17:35.597Z,13.63
2019-02-15T03:20:04.936Z,13.50
2019-02-15T03:22:33.330Z,12.00
2019-02-15T03:25:01.778Z,17.20
2019-02-15T03:27:30.400Z,15.20
2019-02-15T03:29:58.799Z,12.47
2019-02-15T03:32:27.305Z,16.13
2019-02-15T03:34:55.722Z,13.80
2019-02-15T03:37:41.922Z,15.10
2019-02-15T03:40:12.081Z,14.13
2019-02-15T03:42:40.476Z,12.33
2019-02-15T03:45:09.513Z,14.07
2019-02-15T03:47:38.297Z,12.07
2019-02-15T03:50:08.628Z,14.00
2019-02-15T03:52:37.022Z,12.77
2019-02-15T03:55:06.694Z,14.13
2019-02-15T03:57:35.154Z,12.83
2019-02-15T04:00:04.560Z,13.13
2019-02-15T04:02:33.180Z,12.47
2019-02-15T04:05:01.589Z,12.33
2019-02-15T04:07:30.096Z,15.07
2019-02-15T04:09:58.890Z,12.90
2019-02-15T04:12:27.288Z,14.33
2019-02-15T04:14:55.703Z,17.17
2019-02-15T04:17:24.149Z,16.10
2019-02-15T04:19:52.540Z,13.20
2019-02-15T04:22:20.940Z,13.57
2019-02-15T04:24:49.489Z,14.23
2019-02-15T04:27:17.884Z,12.57
2019-02-15T04:29:46.288Z,12.87
2019-02-15T04:32:14.845Z,12.70
2019-02-15T04:34:43.238Z,10.87
2019-02-15T04:37:11.645Z,16.13
2019-02-15T04:39:40.128Z,15.13
2019-02-15T04:42:08.544Z,15.77
2019-02-15T04:44:42.752Z,16.40
2019-02-15T04:47:07.087Z,17.53
2019-02-15T04:49:35.499Z,12.47
2019-02-15T04:52:03.909Z,11.37
2019-02-15T04:54:32.342Z,11.97
2019-02-15T04:57:00.733Z,11.53
2019-02-15T04:59:29.133Z,10.17
2019-02-15T05:01:57.749Z,8.73
2019-02-15T05:04:26.133Z,12.80
2019-02-15T05:06:54.528Z,9.23
2019-02-15T05:09:24.053Z,8.07
2019-02-15T05:11:52.547Z,9.00
2019-02-15T05:14:20.940Z,10.97
2019-02-15T05:16:49.543Z,8.30
2019-02-15T05:19:17.934Z,7.23
2019-02-15T05:21:46.458Z,8.10
2019-02-15T05:24:14.992Z,8.20
2019-02-15T05:26:43.380Z,7.53
2019-02-15T05:29:11.775Z,8.30
2019-02-15T05:31:40.539Z,8.03
2019-02-15T05:34:09.103Z,7.67
2019-02-15T05:36:37.500Z,6.40
2019-02-15T05:39:08.700Z,7.80
2019-02-15T05:41:37.091Z,8.47
2019-02-15T05:44:05.484Z,7.60
2019-02-15T05:46:34.088Z,6.03
2019-02-15T05:49:04.040Z,7.30
2019-02-15T05:51:32.346Z,6.83
2019-02-15T05:54:01.188Z,6.83
2019-02-15T05:56:29.544Z,7.40
2019-02-15T05:58:57.941Z,7.73
2019-02-15T06:01:27.668Z,8.57
2019-02-15T06:03:56.090Z,10.47
2019-02-15T06:06:24.495Z,7.43
2019-02-15T06:08:52.956Z,10.90
2019-02-15T06:11:21.345Z,8.47
2019-02-15T06:13:49.747Z,7.80
2019-02-15T06:16:18.318Z,7.13
2019-02-15T06:18:46.703Z,8.40
2019-02-15T06:21:15.090Z,7.07
2019-02-15T06:23:43.865Z,10.83
2019-02-15T06:26:12.247Z,8.97
2019-02-15T06:28:40.661Z,8.77
2019-02-15T06:31:09.156Z,5.50
2019-02-15T06:33:37.923Z,10.60
2019-02-15T06:36:06.387Z,6.10
2019-02-15T06:38:35.292Z,5.53
2019-02-15T06:41:03.745Z,6.10
2019-02-15T06:43:32.137Z,5.17
2019-02-15T06:46:02.231Z,5.90
2019-02-15T06:48:30.696Z,6.00
2019-02-15T06:50:59.092Z,7.37
2019-02-15T06:53:27.674Z,6.20
2019-02-15T06:55:56.071Z,5.60
2019-02-15T06:58:24.477Z,5.33
2019-02-15T07:01:10.830Z,6.13
2019-02-15T07:03:40.865Z,6.43
2019-02-15T07:06:11.437Z,6.47
2019-02-15T07:08:39.885Z,9.07
2019-02-15T07:11:08.288Z,11.00
2019-02-15T07:13:36.688Z,7.97
2019-02-15T07:16:05.260Z,11.17
2019-02-15T07:18:33.708Z,13.37
2019-02-15T07:21:02.053Z,16.37
2019-02-15T07:23:30.472Z,13.43
2019-02-15T07:25:58.940Z,16.93
2019-02-15T07:28:27.348Z,15.73
2019-02-15T07:30:55.997Z,23.97
2019-02-15T07:33:24.400Z,17.17
2019-02-15T07:35:52.799Z,18.27
2019-02-15T07:38:21.246Z,21.23
2019-02-15T07:40:49.652Z,19.10
2019-02-15T07:43:18.055Z,22.10
2019-02-15T07:45:46.503Z,25.23
2019-02-15T07:48:14.907Z,23.70
2019-02-15T07:50:43.307Z,24.90
2019-02-15T07:53:11.737Z,36.70
2019-02-15T07:55:40.151Z,32.90
2019-02-15T07:58:08.550Z,27.83
2019-02-15T08:00:37.011Z,64.27
2019-02-15T08:03:05.410Z,81.80
2019-02-15T08:05:33.965Z,17.67
2019-02-15T08:08:02.420Z,14.00
2019-02-15T08:10:30.813Z,13.57
2019-02-15T08:12:59.209Z,10.80
2019-02-15T08:15:35.861Z,13.20
2019-02-15T08:17:57.945Z,12.23
2019-02-15T08:20:26.351Z,15.10
2019-02-15T08:22:54.811Z,17.83
2019-02-15T08:25:23.209Z,17.87
2019-02-15T08:27:51.621Z,15.10
2019-02-15T08:30:22.033Z,17.00
2019-02-15T08:32:50.237Z,15.97
2019-02-15T08:35:18.638Z,15.80
2019-02-15T08:37:47.147Z,14.37
2019-02-15T08:40:15.537Z,19.73
2019-02-15T08:42:46.003Z,17.53
2019-02-15T08:45:14.430Z,16.03
2019-02-15T08:47:42.882Z,18.17
2019-02-15T08:50:12.211Z,17.03
2019-02-15T08:52:40.777Z,17.30
2019-02-15T08:55:11.008Z,18.97
2019-02-15T08:57:39.411Z,13.30
2019-02-15T09:00:13.092Z,14.60
2019-02-15T09:02:41.497Z,16.80
2019-02-15T09:05:13.203Z,17.67
2019-02-15T09:07:41.885Z,13.20
2019-02-15T09:10:12.327Z,12.83
2019-02-15T09:12:40.739Z,14.97
2019-02-15T09:15:12.351Z,15.17
2019-02-15T09:17:40.817Z,20.60
2019-02-15T09:20:11.260Z,12.00
2019-02-15T09:22:39.907Z,12.20
2019-02-15T09:25:10.351Z,16.90
2019-02-15T09:27:43.169Z,14.57
2019-02-15T09:30:13.900Z,18.53
2019-02-15T09:32:42.307Z,15.70
2019-02-15T09:35:12.149Z,18.03
2019-02-15T09:37:40.643Z,12.67
2019-02-15T09:40:10.450Z,15.83
2019-02-15T09:42:38.923Z,10.97
2019-02-15T09:45:11.948Z,9.67
2019-02-15T09:47:40.353Z,10.10
2019-02-15T09:50:11.993Z,8.23
2019-02-15T09:52:40.227Z,9.47
2019-02-15T09:55:08.800Z,10.23
2019-02-15T09:57:37.203Z,13.13
2019-02-15T10:00:08.549Z,10.23
2019-02-15T10:02:36.943Z,12.57
2019-02-15T10:05:06.988Z,14.47
2019-02-15T10:07:35.467Z,14.77
2019-02-15T10:10:04.736Z,12.13
2019-02-15T10:12:33.130Z,11.10
2019-02-15T10:15:01.558Z,12.33
2019-02-15T10:17:30.038Z,10.33
2019-02-15T10:19:58.435Z,9.93
2019-02-15T10:22:26.867Z,13.13
2019-02-15T10:24:55.263Z,11.30
2019-02-15T10:27:23.672Z,12.67
2019-02-15T10:29:52.273Z,17.43
2019-02-15T10:32:20.728Z,20.83
2019-02-15T10:34:49.131Z,18.87
2019-02-15T10:37:19.266Z,27.23
2019-02-15T10:39:47.670Z,14.70
2019-02-15T10:42:16.082Z,17.47
2019-02-15T10:44:44.546Z,16.00
2019-02-15T10:47:14.475Z,20.03
2019-02-15T10:49:43.157Z,15.93
2019-02-15T10:52:11.807Z,17.03
2019-02-15T10:54:40.209Z,15.77
2019-02-15T10:57:08.615Z,16.83
2019-02-15T10:59:37.079Z,11.57
2019-02-15T11:02:05.827Z,18.30
2019-02-15T11:04:34.237Z,15.90
2019-02-15T11:07:02.765Z,11.40
2019-02-15T11:09:31.183Z,12.40
2019-02-15T11:11:59.654Z,10.47
2019-02-15T11:14:28.103Z,9.97
2019-02-15T11:16:56.505Z,14.00
2019-02-15T11:19:24.914Z,14.17
2019-02-15T11:21:53.334Z,16.17
2019-02-15T11:24:21.741Z,15.30
2019-02-15T11:26:50.140Z,14.53
2019-02-15T11:29:18.592Z,10.73
2019-02-15T11:31:46.985Z,15.07
2019-02-15T11:34:15.411Z,13.83
2019-02-15T11:36:44.025Z,12.07
2019-02-15T11:39:12.425Z,13.63
2019-02-15T11:41:40.831Z,15.53
2019-02-15T11:44:09.257Z,13.30
2019-02-15T11:46:37.757Z,10.80
2019-02-15T11:49:06.163Z,10.00
2019-02-15T11:51:34.836Z,10.40
2019-02-15T11:54:03.241Z,8.37
2019-02-15T11:56:31.637Z,9.00
2019-02-15T11:59:00.080Z,9.93
2019-02-15T12:01:28.489Z,11.33
2019-02-15T12:03:56.882Z,7.63
2019-02-15T12:06:25.356Z,10.30
2019-02-15T12:08:53.750Z,8.40
2019-02-15T12:11:22.196Z,7.83
2019-02-15T12:13:50.812Z,8.93
2019-02-15T12:16:19.304Z,11.13
2019-02-15T12:18:47.686Z,7.80
2019-02-15T12:21:16.116Z,7.43
2019-02-15T12:23:44.981Z,10.20
2019-02-15T12:26:13.403Z,9.70
2019-02-15T12:28:42.019Z,8.20
2019-02-15T12:31:10.423Z,8.23
2019-02-15T12:33:38.826Z,9.03
2019-02-15T12:36:07.357Z,9.80
2019-02-15T12:38:35.828Z,10.77
2019-02-15T12:41:04.237Z,14.77
2019-02-15T12:43:32.888Z,9.43
2019-02-15T12:46:01.421Z,6.67
2019-02-15T12:48:29.817Z,8.30
2019-02-15T12:50:58.474Z,7.03
2019-02-15T12:53:26.940Z,6.20
2019-02-15T12:55:55.338Z,10.10
2019-02-15T12:58:23.885Z,7.10
2019-02-15T13:00:52.379Z,7.23
2019-02-15T13:03:20.790Z,9.93
2019-02-15T13:05:50.077Z,13.07
2019-02-15T13:08:18.686Z,9.07
2019-02-15T13:10:48.973Z,7.33
2019-02-15T13:13:17.800Z,6.97
2019-02-15T13:15:46.215Z,7.20
2019-02-15T13:18:14.587Z,6.67
2019-02-15T13:20:43.086Z,8.77
2019-02-15T13:23:11.481Z,7.63
2019-02-15T13:25:39.876Z,7.50
2019-02-15T13:28:08.351Z,8.53
2019-02-15T13:30:36.723Z,7.70
2019-02-15T13:33:05.119Z,5.93
2019-02-15T13:35:33.677Z,6.13
2019-02-15T13:38:02.136Z,8.70
2019-02-15T13:40:30.533Z,7.43
2019-02-15T13:42:59.205Z,7.13
2019-02-15T13:45:29.516Z,6.87
2019-02-15T13:47:57.728Z,6.77
2019-02-15T13:50:26.160Z,6.77
2019-02-15T13:52:54.571Z,8.40
2019-02-15T13:55:23.336Z,6.30
2019-02-15T13:57:52.009Z,7.27
2019-02-15T14:00:20.379Z,4.47
2019-02-15T14:02:48.779Z,5.50
2019-02-15T14:05:17.372Z,7.10
2019-02-15T14:07:45.839Z,6.40
2019-02-15T14:10:14.873Z,4.73
2019-02-15T14:12:43.530Z,5.63
2019-02-15T14:15:12.967Z,6.50
2019-02-15T14:17:46.304Z,6.57
2019-02-15T14:20:14.675Z,5.70
2019-02-15T14:22:43.204Z,6.40
2019-02-15T14:25:12.445Z,5.27
2019-02-15T14:27:41.195Z,8.10
2019-02-15T14:30:13.855Z,8.03
2019-02-15T14:32:43.210Z,7.90
2019-02-15T14:35:13.501Z,7.60
2019-02-15T14:37:43.453Z,7.40
2019-02-15T14:40:13.358Z,5.43
2019-02-15T14:42:42.003Z,8.13
2019-02-15T14:45:11.674Z,6.20
2019-02-15T14:47:40.161Z,7.33
2019-02-15T14:50:14.826Z,7.40
2019-02-15T14:52:43.243Z,5.60
2019-02-15T14:55:12.127Z,6.13
2019-02-15T14:57:42.017Z,7.03
2019-02-15T15:00:12.408Z,5.60
2019-02-15T15:02:41.067Z,4.90
2019-02-15T15:05:10.588Z,8.00
2019-02-15T15:07:39.030Z,7.00
2019-02-15T15:10:09.281Z,5.47
2019-02-15T15:12:44.090Z,7.73
2019-02-15T15:15:16.462Z,7.37
2019-02-15T15:17:45.375Z,9.60
2019-02-15T15:20:17.222Z,4.20
2019-02-15T15:22:45.632Z,5.37
2019-02-15T15:25:16.770Z,5.37
2019-02-15T15:27:45.214Z,3.90
2019-02-15T15:30:15.029Z,5.00
2019-02-15T15:32:43.568Z,5.30
2019-02-15T15:35:12.945Z,3.83
2019-02-15T15:37:41.419Z,3.93
2019-02-15T15:40:15.046Z,5.57
2019-02-15T15:42:43.443Z,6.30
2019-02-15T15:45:12.794Z,4.37
2019-02-15T15:47:41.301Z,3.73
2019-02-15T15:50:11.445Z,4.37
2019-02-15T15:52:40.083Z,4.83
2019-02-15T15:55:13.443Z,5.53
2019-02-15T15:57:41.896Z,5.47
2019-02-15T16:00:14.946Z,6.03
2019-02-15T16:02:43.947Z,5.17
2019-02-15T16:05:12.481Z,5.07
2019-02-15T16:07:43.289Z,6.50
2019-02-15T16:10:12.678Z,6.00
2019-02-15T16:12:41.097Z,7.93
2019-02-15T16:15:11.426Z,5.60
2019-02-15T16:17:40.074Z,7.77
2019-02-15T16:20:10.955Z,6.43
2019-02-15T16:22:39.362Z,8.47
2019-02-15T16:25:10.590Z,5.40
2019-02-15T16:27:38.987Z,6.90
2019-02-15T16:30:10.722Z,9.60
2019-02-15T16:32:39.141Z,9.97
2019-02-15T16:35:08.285Z,10.63
2019-02-15T16:37:36.715Z,7.17
2019-02-15T16:40:13.694Z,8.63
2019-02-15T16:42:44.532Z,9.23
2019-02-15T16:45:14.676Z,10.40
2019-02-15T16:47:43.345Z,10.50
2019-02-15T16:50:12.377Z,9.97
2019-02-15T16:52:40.944Z,10.50
2019-02-15T16:55:12.678Z,7.13
2019-02-15T16:57:40.434Z,6.80
2019-02-15T17:00:13.550Z,12.83
2019-02-15T17:02:42.047Z,12.07
2019-02-15T17:05:10.787Z,13.27
2019-02-15T17:07:39.186Z,8.13
2019-02-15T17:10:09.632Z,9.67
2019-02-15T17:12:38.133Z,9.60
2019-02-15T17:15:14.542Z,11.90
2019-02-15T17:17:43.002Z,8.77
2019-02-15T17:20:11.647Z,9.43
2019-02-15T17:22:40.162Z,9.90
2019-02-15T17:25:14.501Z,10.67
2019-02-15T17:27:42.983Z,9.20
2019-02-15T17:30:12.167Z,12.67
2019-02-15T17:32:40.652Z,11.57
2019-02-15T17:35:12.517Z,11.27
2019-02-15T17:37:41.124Z,8.33
2019-02-15T17:40:14.631Z,8.63
2019-02-15T17:42:43.030Z,11.10
2019-02-15T17:45:12.874Z,6.87
2019-02-15T17:47:41.339Z,8.93
2019-02-15T17:50:11.070Z,8.13
2019-02-15T17:52:39.586Z,7.03
2019-02-15T17:55:09.819Z,7.50
2019-02-15T17:57:38.558Z,11.87
2019-02-15T18:00:10.361Z,7.73
2019-02-15T18:02:38.793Z,8.27
2019-02-15T18:05:10.570Z,8.10
2019-02-15T18:07:39.167Z,8.90
2019-02-15T18:10:07.632Z,8.90
2019-02-15T18:12:36.320Z,8.07
2019-02-15T18:15:05.765Z,8.77
2019-02-15T18:17:34.175Z,10.00
2019-02-15T18:20:02.638Z,9.23
2019-02-15T18:22:31.061Z,11.23
2019-02-15T18:24:59.460Z,11.90
2019-02-15T18:27:27.857Z,6.83
2019-02-15T18:29:56.631Z,10.90
2019-02-15T18:32:25.024Z,10.93
2019-02-15T18:34:53.438Z,6.50
2019-02-15T18:37:21.968Z,7.23
2019-02-15T18:39:50.354Z,6.57
2019-02-15T18:42:18.784Z,6.03
2019-02-15T18:44:47.207Z,4.97
2019-02-15T18:47:15.605Z,5.10
2019-02-15T18:49:44.095Z,6.77
2019-02-15T18:52:12.756Z,8.50
2019-02-15T18:54:41.158Z,6.50
2019-02-15T18:57:09.555Z,7.77
2019-02-15T18:59:37.975Z,9.70
2019-02-15T19:02:06.441Z,8.93
2019-02-15T19:04:34.842Z,7.87
2019-02-15T19:07:03.632Z,5.07
2019-02-15T19:09:32.028Z,5.13
2019-02-15T19:12:00.505Z,6.57
2019-02-15T19:14:28.932Z,9.57
2019-02-15T19:16:57.331Z,9.10
2019-02-15T19:19:29.024Z,6.93
2019-02-15T19:21:55.919Z,8.73
2019-02-15T19:24:24.342Z,8.07
2019-02-15T19:26:52.802Z,7.03
2019-02-15T19:29:21.232Z,5.50
2019-02-15T19:31:49.629Z,7.50
2019-02-15T19:34:18.089Z,9.63
2019-02-15T19:36:46.516Z,7.23
2019-02-15T19:39:14.914Z,7.13
2019-02-15T19:41:43.317Z,12.27
2019-02-15T19:44:11.736Z,9.57
2019-02-15T19:46:40.118Z,8.60
2019-02-15T19:49:08.515Z,9.43
2019-02-15T19:51:37.265Z,9.80
2019-02-15T19:54:05.739Z,7.07
2019-02-15T19:56:34.138Z,7.77
2019-02-15T19:59:02.746Z,9.03
2019-02-15T20:01:31.151Z,8.67
2019-02-15T20:03:59.548Z,9.00
2019-02-15T20:06:27.998Z,6.57
2019-02-15T20:08:56.390Z,7.13
2019-02-15T20:11:24.822Z,10.47
2019-02-15T20:13:53.350Z,11.03
2019-02-15T20:16:21.744Z,7.83
2019-02-15T20:18:50.143Z,11.00
2019-02-15T20:21:18.567Z,15.77
2019-02-15T20:23:46.980Z,22.57
2019-02-15T20:26:15.397Z,30.17
2019-02-15T20:28:43.824Z,17.67
2019-02-15T20:31:12.222Z,13.40
2019-02-15T20:33:40.618Z,13.73
2019-02-15T20:36:09.061Z,17.47
2019-02-15T20:38:37.468Z,15.67
2019-02-15T20:41:05.884Z,13.47
2019-02-15T20:43:34.493Z,12.73
2019-02-15T20:46:02.898Z,16.10
2019-02-15T20:48:31.360Z,8.13
2019-02-15T20:50:59.781Z,8.47
2019-02-15T20:53:28.171Z,7.13
2019-02-15T20:55:56.562Z,8.30
2019-02-15T20:58:25.181Z,5.20
2019-02-15T21:00:53.649Z,6.33
2019-02-15T21:03:22.056Z,8.87
2019-02-15T21:05:50.612Z,7.50
2019-02-15T21:08:19.007Z,4.80
2019-02-15T21:10:54.576Z,6.60
2019-02-15T21:13:20.416Z,6.70
2019-02-15T21:15:48.083Z,7.13
2019-02-15T21:18:16.575Z,7.77
2019-02-15T21:20:45.182Z,5.77
2019-02-15T21:23:13.580Z,5.43
2019-02-15T21:25:41.978Z,6.60
2019-02-15T21:28:10.388Z,6.67
2019-02-15T21:30:38.814Z,6.60
2019-02-15T21:33:07.274Z,10.37
2019-02-15T21:35:35.701Z,10.97
2019-02-15T21:38:04.170Z,10.50
2019-02-15T21:40:32.592Z,11.57
2019-02-15T21:43:01.206Z,12.30
2019-02-15T21:45:29.607Z,12.23
2019-02-15T21:47:58.006Z,12.80
2019-02-15T21:50:26.546Z,14.13
2019-02-15T21:52:54.939Z,13.43
2019-02-15T21:55:23.338Z,11.33
2019-02-15T21:58:00.788Z,11.07
2019-02-15T22:00:24.172Z,10.13
2019-02-15T22:02:52.568Z,7.93
2019-02-15T22:05:21.265Z,11.13
2019-02-15T22:07:49.659Z,19.23
2019-02-15T22:10:18.062Z,26.50
2019-02-15T22:12:46.526Z,18.60
2019-02-15T22:15:16.467Z,10.70
2019-02-15T22:17:44.860Z,8.73
2019-02-15T22:20:14.720Z,10.40
2019-02-15T22:22:43.165Z,9.30
2019-02-15T22:25:11.671Z,10.10
2019-02-15T22:27:40.354Z,10.40
2019-02-15T22:30:14.302Z,9.53
2019-02-15T22:32:42.883Z,8.30
2019-02-15T22:35:11.689Z,8.03
2019-02-15T22:37:40.153Z,10.17
2019-02-15T22:40:31.293Z,9.43
2019-02-15T22:43:02.468Z,9.80
2019-02-15T22:45:30.967Z,8.40
2019-02-15T22:47:59.468Z,8.93
2019-02-15T22:50:35.630Z,8.97
2019-02-15T22:52:57.968Z,10.60
2019-02-15T22:55:26.574Z,8.50
2019-02-15T22:57:55.001Z,7.87
2019-02-15T23:00:40.328Z,9.97
2019-02-15T23:03:08.782Z,8.67
2019-02-15T23:05:37.170Z,7.80
2019-02-15T23:08:05.594Z,8.47
2019-02-15T23:10:33.986Z,9.90
2019-02-15T23:13:02.384Z,11.43
2019-02-15T23:15:30.803Z,10.30
2019-02-15T23:17:59.202Z,12.40
2019-02-15T23:20:27.622Z,14.00
2019-02-15T23:22:56.022Z,15.37
2019-02-15T23:25:25.106Z,11.53
2019-02-15T23:27:53.762Z,13.00
2019-02-15T23:30:22.210Z,11.87
2019-02-15T23:32:50.600Z,10.13
2019-02-15T23:35:19.003Z,8.80
2019-02-15T23:37:47.470Z,7.53
2019-02-15T23:40:15.868Z,10.07
2019-02-15T23:42:44.260Z,9.93
2019-02-15T23:45:13.080Z,11.40
2019-02-15T23:47:41.526Z,10.87
2019-02-15T23:50:10.102Z,10.33
2019-02-15T23:52:38.508Z,10.83
2019-02-15T23:55:07.079Z,10.37
2019-02-15T23:57:35.492Z,11.60
